Time;durP1;ratioP1;P1;durP2;ratioP2;P2;SDS_P1;SDS_P2;PMS_P1;PMS_P2;Temp;Humidity;BMP_temperature;BMP_pressure;BME280_temperature;BME280_humidity;BME280_pressure;Samples;Min_cycle;Max_cycle;Signal;HPM_P1;HPM_P2
2023/06/09 00:02:01;;;;;;;7.30;2.13;;;14.20;99.90;;;;;;5059395;28;20048;-91
2023/06/09 00:04:29;;;;;;;4.82;2.03;;;12.60;1.00;;;;;;5059939;28;20055;-92
2023/06/09 00:06:55;;;;;;;3.75;1.75;;;11.80;99.90;;;;;;5058948;28;20048;-91
2023/06/09 00:09:21;;;;;;;9.20;1.95;;;14.40;99.90;;;;;;5059356;28;20422;-92
2023/06/09 00:11:47;;;;;;;7.45;1.98;;;13.60;99.90;;;;;;5075740;28;20044;-90
2023/06/09 00:14:13;;;;;;;6.63;2.30;;;13.60;99.90;;;;;;5059559;28;20143;-93
2023/06/09 00:16:39;;;;;;;5.65;1.83;;;11.70;11.70;;;;;;5059030;28;20140;-91
2023/06/09 00:19:08;;;;;;;4.05;1.75;;;13.40;1.00;;;;;;5059038;28;20048;-91
2023/06/09 00:21:37;;;;;;;3.75;1.65;;;14.60;88.40;;;;;;5059018;28;20080;-92
2023/06/09 00:24:03;;;;;;;5.78;2.30;;;11.80;99.90;;;;;;5058962;28;20056;-93
2023/06/09 00:26:29;;;;;;;5.15;2.35;;;11.80;99.90;;;;;;5059164;28;20389;-91
2023/06/09 00:28:55;;;;;;;4.65;2.30;;;14.30;1.00;;;;;;5058677;28;20060;-93
2023/06/09 00:31:21;;;;;;;5.80;2.30;;;9.70;99.90;;;;;;5058594;28;20078;-92
2023/06/09 00:33:46;;;;;;;3.55;2.15;;;14.50;99.90;;;;;;5059212;28;20049;-94
2023/06/09 00:36:12;;;;;;;8.70;2.72;;;14.30;99.90;;;;;;5058610;28;20048;-90
2023/06/09 00:38:38;;;;;;;7.78;2.90;;;12.80;99.90;;;;;;5059036;28;20102;-92
2023/06/09 00:41:03;;;;;;;6.95;2.70;;;11.60;99.90;;;;;;5058647;28;20048;-91
2023/06/09 00:43:29;;;;;;;8.57;3.25;;;13.80;99.90;;;;;;5058818;28;20048;-90
2023/06/09 00:45:58;;;;;;;5.32;2.70;;;14.50;99.90;;;;;;5058640;28;20060;-94
2023/06/09 00:48:24;;;;;;;7.90;2.92;;;14.20;39.40;;;;;;5058006;28;20131;-91
2023/06/09 00:50:50;;;;;;;6.13;2.92;;;14.60;1.00;;;;;;5075107;28;20131;-91
2023/06/09 00:53:16;;;;;;;5.07;2.63;;;13.20;10.40;;;;;;5058270;28;20040;-91
2023/06/09 00:55:42;;;;;;;6.30;2.83;;;13.30;99.90;;;;;;5058799;28;20118;-91
2023/06/09 00:58:09;;;;;;;9.43;3.03;;;12.00;54.10;;;;;;5058711;28;20048;-92
2023/06/09 01:00:35;;;;;;;5.07;2.67;;;12.10;1.00;;;;;;5058332;28;20098;-90
2023/06/09 01:03:02;;;;;;;6.72;3.05;;;13.20;1.00;;;;;;5058069;28;20087;-93
2023/06/09 01:05:33;;;;;;;8.75;2.55;;;13.20;99.90;;;;;;5059156;28;20052;-91
2023/06/09 01:08:05;;;;;;;10.10;2.83;;;12.10;99.90;;;;;;5059540;28;20049;-91
2023/06/09 01:11:12;;;;;;;7.65;3.03;;;12.20;39.10;;;;;;5058264;28;20493;-91
2023/06/09 01:13:55;;;;;;;11.50;2.72;;;11.80;99.90;;;;;;5059132;28;20102;-92
2023/06/09 01:16:38;;;;;;;9.77;2.78;;;11.60;1.00;;;;;;5075489;28;20374;-91
2023/06/09 01:19:11;;;;;;;6.85;2.65;;;12.10;1.00;;;;;;5075568;28;20044;-91
2023/06/09 01:21:43;;;;;;;5.25;2.55;;;11.70;99.80;;;;;;5058663;28;20071;-92
2023/06/09 01:24:28;;;;;;;8.23;2.85;;;14.30;99.90;;;;;;5057698;28;20485;-92
2023/06/09 01:26:59;;;;;;;7.82;2.80;;;11.50;99.90;;;;;;5057845;28;20150;-90
2023/06/09 01:29:25;;;;;;;7.22;3.00;;;11.90;99.90;;;;;;5056826;28;20420;-93
2023/06/09 01:31:52;;;;;;;7.28;3.20;;;13.80;99.90;;;;;;5056381;28;20094;-90
2023/06/09 01:34:18;;;;;;;7.15;3.22;;;14.50;37.00;;;;;;5056701;28;20132;-90
2023/06/09 01:36:45;;;;;;;5.63;3.00;;;13.80;99.90;;;;;;5056477;28;20052;-94
2023/06/09 01:39:12;;;;;;;7.03;2.85;;;14.00;19.10;;;;;;5056108;28;20060;-91
2023/06/09 01:41:37;;;;;;;6.85;2.40;;;11.50;1.00;;;;;;5072745;28;20542;-92
2023/06/09 01:44:03;;;;;;;5.63;2.65;;;13.40;99.90;;;;;;5056585;28;20135;-90
2023/06/09 01:46:29;;;;;;;6.18;2.78;;;11.70;99.90;;;;;;5056486;28;20052;-91
2023/06/09 01:49:13;;;;;;;5.28;2.50;;;9.20;99.90;;;;;;5055749;28;20041;-89
2023/06/09 01:51:48;;;;;;;7.35;3.50;;;14.20;1.00;;;;;;5056381;28;20094;-89
2023/06/09 01:54:43;;;;;;;15.70;3.85;;;12.50;99.90;;;;;;5073358;28;20064;-91
2023/06/09 01:57:27;;;;;;;8.05;3.35;;;14.00;99.90;;;;;;5054443;28;20113;-90
2023/06/09 02:00:11;;;;;;;5.15;2.70;;;11.50;99.90;;;;;;5056872;28;20256;-91
2023/06/09 02:02:40;;;;;;;10.07;3.38;;;11.60;1.00;;;;;;5072757;28;20044;-89
2023/06/09 02:05:06;;;;;;;8.15;2.97;;;11.90;99.90;;;;;;5056577;28;20503;-90
2023/06/09 02:07:33;;;;;;;5.68;2.58;;;11.60;99.90;;;;;;5073204;28;20078;-90
2023/06/09 02:09:59;;;;;;;5.78;3.58;;;12.90;99.90;;;;;;5056062;28;20409;-91
2023/06/09 02:12:32;;;;;;;8.82;3.28;;;13.80;1.00;;;;;;5056134;28;20045;-90
2023/06/09 02:14:58;;;;;;;8.55;3.63;;;11.40;99.90;;;;;;5056284;28;20397;-90
2023/06/09 02:17:24;;;;;;;7.20;3.58;;;13.90;1.00;;;;;;5056015;28;20052;-89
2023/06/09 02:19:50;;;;;;;6.82;3.03;;;13.70;1.00;;;;;;5055461;28;20080;-91
2023/06/09 02:22:18;;;;;;;5.88;3.25;;;14.00;1.00;;;;;;5072342;28;20133;-92
2023/06/09 02:24:44;;;;;;;6.10;3.65;;;13.50;1.00;;;;;;5056003;28;20447;-90
2023/06/09 02:27:09;;;;;;;10.00;3.22;;;12.50;1.00;;;;;;5055716;28;20052;-91
2023/06/09 02:29:35;;;;;;;6.32;2.88;;;12.90;1.00;;;;;;5010405;28;1318410;-89
2023/06/09 02:32:01;;;;;;;4.93;2.90;;;11.40;1.00;;;;;;5055852;28;20051;-91
2023/06/09 02:34:29;;;;;;;11.70;3.28;;;11.40;1.00;;;;;;5072951;28;20040;-91
2023/06/09 02:36:57;;;;;;;7.38;3.30;;;11.30;1.00;;;;;;5056493;28;20040;-90
2023/06/09 02:39:23;;;;;;;5.85;3.47;;;13.40;99.90;;;;;;5056345;28;20087;-89
2023/06/09 02:41:49;;;;;;;8.73;3.60;;;13.50;99.90;;;;;;5056076;28;20090;-90
2023/06/09 02:44:15;;;;;;;6.50;3.10;;;11.60;99.90;;;;;;5056731;28;20058;-90
2023/06/09 02:46:42;;;;;;;6.13;2.92;;;13.60;1.00;;;;;;5056292;28;20037;-89
2023/06/09 02:49:08;;;;;;;6.90;3.50;;;13.70;99.90;;;;;;5056650;28;20055;-90
2023/06/09 02:51:34;;;;;;;6.13;3.10;;;12.60;99.90;;;;;;5062675;28;20037;-90
2023/06/09 02:54:00;;;;;;;6.22;2.72;;;13.60;1.00;;;;;;5061432;28;20109;-90
2023/06/09 02:56:26;;;;;;;7.95;3.10;;;14.30;99.90;;;;;;5063059;28;20045;-90
2023/06/09 02:58:53;;;;;;;4.75;3.30;;;13.20;1.00;;;;;;5058549;28;20048;-88
2023/06/09 03:01:22;;;;;;;6.05;3.25;;;13.20;1.00;;;;;;5074920;28;20374;-91
2023/06/09 03:03:48;;;;;;;6.50;2.78;;;11.50;1.00;;;;;;5058838;28;20473;-89
2023/06/09 03:06:15;;;;;;;6.90;3.38;;;14.20;1.00;;;;;;5056969;28;20059;-91
2023/06/09 03:08:42;;;;;;;11.23;3.80;;;11.40;2.50;;;;;;5073572;28;20036;-92
2023/06/09 03:11:07;;;;;;;5.82;3.22;;;11.60;1.00;;;;;;5055516;28;20428;-90
2023/06/09 03:13:34;;;;;;;7.72;3.53;;;11.40;1.00;;;;;;5056146;28;20044;-90
2023/06/09 03:15:59;;;;;;;8.05;3.60;;;12.20;1.00;;;;;;5055957;28;20056;-91
2023/06/09 03:18:26;;;;;;;7.72;3.45;;;13.50;1.00;;;;;;5072435;28;20048;-91
2023/06/09 03:20:52;;;;;;;8.60;3.55;;;14.20;1.00;;;;;;5055925;28;20151;-92
2023/06/09 03:23:21;;;;;;;11.93;3.50;;;13.60;7.80;;;;;;5072933;28;20052;-90
2023/06/09 03:25:49;;;;;;;11.20;3.97;;;13.90;26.40;;;;;;5055704;28;20526;-92
2023/06/09 03:28:15;;;;;;;6.03;3.67;;;13.90;17.50;;;;;;5072289;28;20057;-90
2023/06/09 03:30:41;;;;;;;6.88;3.10;;;12.30;11.50;;;;;;5055826;28;20048;-90
2023/06/09 03:33:07;;;;;;;4.75;2.95;;;11.60;7.10;;;;;;5056152;28;20037;-89
2023/06/09 03:35:32;;;;;;;9.88;3.60;;;13.20;2.30;;;;;;5072692;28;20087;-89
2023/06/09 03:37:58;;;;;;;9.40;3.40;;;14.00;12.60;;;;;;5072622;28;20098;-93
2023/06/09 03:40:23;;;;;;;6.32;3.25;;;13.60;10.60;;;;;;5072294;28;20448;-90
2023/06/09 03:42:49;;;;;;;6.72;3.47;;;14.10;19.10;;;;;;5056024;28;20503;-89
2023/06/09 03:45:15;;;;;;;7.70;3.60;;;13.70;17.70;;;;;;5055790;28;20040;-91
2023/06/09 03:47:41;;;;;;;8.68;3.03;;;11.80;25.60;;;;;;5055603;28;20373;-95
2023/06/09 03:50:07;;;;;;;5.50;2.88;;;13.80;17.30;;;;;;5055389;28;20033;-91
2023/06/09 03:52:33;;;;;;;10.13;3.95;;;12.10;21.50;;;;;;5055521;28;20044;-91
2023/06/09 03:54:58;;;;;;;9.05;3.47;;;11.70;42.90;;;;;;5054873;28;20454;-89
2023/06/09 03:57:24;;;;;;;4.30;3.08;;;13.10;38.80;;;;;;5055592;28;20099;-89
2023/06/09 03:59:50;;;;;;;8.75;3.67;;;13.60;35.70;;;;;;5072399;28;20048;-90
2023/06/09 04:02:16;;;;;;;8.38;3.80;;;11.00;35.40;;;;;;5055719;28;20048;-91
2023/06/09 04:04:41;;;;;;;10.27;3.35;;;14.20;33.10;;;;;;5055227;28;20133;-90
2023/06/09 04:07:07;;;;;;;8.93;4.00;;;14.10;29.30;;;;;;5071836;28;20044;-91
2023/06/09 04:09:34;;;;;;;18.77;3.70;;;12.60;36.40;;;;;;5055674;28;20492;-91
2023/06/09 04:12:00;;;;;;;10.93;3.88;;;14.60;38.70;;;;;;5058295;28;20366;-90
2023/06/09 04:14:26;;;;;;;7.18;3.88;;;11.80;35.90;;;;;;5060133;28;20128;-91
2023/06/09 04:16:52;;;;;;;5.10;3.10;;;11.90;39.70;;;;;;5060298;28;20131;-89
2023/06/09 04:19:17;;;;;;;10.60;3.75;;;14.20;47.60;;;;;;5059641;28;20075;-92
2023/06/09 04:21:43;;;;;;;9.07;3.58;;;14.60;90.30;;;;;;5060107;28;20057;-89
2023/06/09 04:24:10;;;;;;;7.82;3.60;;;14.70;91.60;;;;;;5059277;28;20091;-90
2023/06/09 04:26:38;;;;;;;6.75;3.72;;;12.00;89.70;;;;;;5058864;28;20042;-93
2023/06/09 04:29:04;;;;;;;10.85;3.95;;;11.70;85.70;;;;;;5058461;28;20444;-91
2023/06/09 04:31:33;;;;;;;6.35;3.95;;;12.40;81.40;;;;;;5058289;28;20045;-88
2023/06/09 04:34:09;;;;;;;9.15;3.30;;;12.10;80.40;;;;;;5057969;28;20059;-91
2023/06/09 04:36:35;;;;;;;7.03;3.38;;;13.50;78.40;;;;;;5058467;28;20045;-89
2023/06/09 04:39:01;;;;;;;9.27;4.05;;;15.10;76.80;;;;;;5058566;28;20059;-92
2023/06/09 04:41:26;;;;;;;8.05;3.70;;;10.60;81.90;;;;;;5057833;28;20045;-91
2023/06/09 04:43:53;;;;;;;8.45;3.47;;;12.90;79.00;;;;;;5059504;28;20052;-90
2023/06/09 04:46:24;;;;;;;6.97;2.72;;;12.90;80.90;;;;;;5059169;28;20409;-88
2023/06/09 04:48:51;;;;;;;6.75;3.45;;;13.80;78.70;;;;;;5075660;28;20044;-90
2023/06/09 04:51:19;;;;;;;15.15;3.47;;;15.30;91.10;;;;;;5075642;28;20401;-90
2023/06/09 04:53:47;;;;;;;8.70;3.58;;;12.20;89.30;;;;;;5059338;28;20047;-90
2023/06/09 04:56:16;;;;;;;9.73;3.53;;;14.40;90.20;;;;;;5059184;28;20109;-90
2023/06/09 04:58:42;;;;;;;6.35;3.55;;;13.30;91.60;;;;;;5075597;28;20114;-89
2023/06/09 05:01:07;;;;;;;8.40;3.17;;;12.90;95.10;;;;;;5059078;28;20154;-91
2023/06/09 05:03:33;;;;;;;8.65;3.38;;;13.80;94.40;;;;;;5075738;28;20056;-90
2023/06/09 05:05:59;;;;;;;8.65;3.30;;;14.70;93.90;;;;;;5074948;28;20052;-92
2023/06/09 05:08:25;;;;;;;6.30;3.58;;;12.80;94.50;;;;;;5058899;28;20047;-91
2023/06/09 05:10:52;;;;;;;10.45;3.55;;;13.30;93.60;;;;;;5058245;28;20182;-92
2023/06/09 05:13:18;;;;;;;4.97;2.47;;;14.60;92.90;;;;;;5074647;28;20053;-94
2023/06/09 05:15:45;;;;;;;11.88;3.53;;;15.90;94.40;;;;;;5074447;28;20067;-89
2023/06/09 05:18:10;;;;;;;6.82;3.00;;;16.30;91.10;;;;;;5074459;28;20048;-90
2023/06/09 05:20:36;;;;;;;6.20;3.38;;;15.50;89.10;;;;;;5057906;28;20131;-90
2023/06/09 05:23:02;;;;;;;7.05;3.03;;;16.10;91.40;;;;;;5056642;28;20102;-88
2023/06/09 05:25:28;;;;;;;5.82;3.03;;;13.70;84.60;;;;;;5057756;28;20452;-89
2023/06/09 05:27:54;;;;;;;8.13;3.78;;;15.30;77.00;;;;;;5056986;28;20057;-91
2023/06/09 05:30:19;;;;;;;9.90;2.97;;;15.70;69.00;;;;;;5057113;28;20140;-92
2023/06/09 05:32:45;;;;;;;9.10;3.58;;;14.60;63.90;;;;;;5059102;28;20040;-93
2023/06/09 05:35:11;;;;;;;5.97;3.33;;;14.30;42.00;;;;;;5059925;28;20389;-93
2023/06/09 05:37:50;;;;;;;9.30;3.55;;;15.70;10.40;;;;;;5057921;28;20407;-88
2023/06/09 05:40:16;;;;;;;9.35;3.45;;;16.70;1.00;;;;;;5073763;28;20044;-88
2023/06/09 05:42:41;;;;;;;6.97;3.55;;;14.40;1.00;;;;;;5073919;28;20074;-91
2023/06/09 05:45:07;;;;;;;7.15;3.75;;;15.00;1.00;;;;;;5073887;28;20052;-92
2023/06/09 05:47:33;;;;;;;6.32;3.15;;;14.50;1.00;;;;;;5056999;28;20094;-92
2023/06/09 05:49:59;;;;;;;8.23;3.40;;;16.40;1.00;;;;;;5056790;28;20083;-94
2023/06/09 05:52:25;;;;;;;9.35;3.53;;;14.90;1.00;;;;;;5056901;28;20053;-91
2023/06/09 05:54:51;;;;;;;5.93;3.53;;;16.40;99.90;;;;;;5058272;28;20090;-87
2023/06/09 05:57:19;;;;;;;8.23;3.83;;;14.80;99.90;;;;;;5075433;28;20048;-90
2023/06/09 05:59:45;;;;;;;9.50;3.58;;;16.90;99.90;;;;;;5060776;28;20060;-91
2023/06/09 06:02:13;;;;;;;7.88;3.40;;;15.00;99.90;;;;;;5072750;28;20049;-90
2023/06/09 06:04:42;;;;;;;7.40;4.13;;;17.00;99.90;;;;;;5057720;28;20136;-94
2023/06/09 06:07:07;;;;;;;7.07;3.60;;;16.40;1.00;;;;;;5058190;28;20534;-91
2023/06/09 06:09:33;;;;;;;5.68;3.28;;;14.60;99.90;;;;;;5074062;28;20044;-93
2023/06/09 06:11:59;;;;;;;9.30;4.35;;;15.20;99.90;;;;;;5057720;28;20500;-92
2023/06/09 06:14:24;;;;;;;8.00;3.85;;;12.90;99.90;;;;;;5056727;28;20505;-90
2023/06/09 06:16:50;;;;;;;7.43;3.83;;;16.40;99.90;;;;;;5056805;28;20040;-86
2023/06/09 06:19:16;;;;;;;9.43;3.88;;;15.50;99.90;;;;;;5073649;28;20040;-91
2023/06/09 06:21:42;;;;;;;9.43;4.03;;;15.50;99.90;;;;;;5057000;28;20048;-92
2023/06/09 06:24:09;;;;;;;8.35;3.70;;;17.80;1.00;;;;;;5056415;28;20044;-91
2023/06/09 06:26:35;;;;;;;12.32;4.28;;;17.80;99.90;;;;;;5073258;28;20139;-93
2023/06/09 06:29:01;;;;;;;11.68;3.97;;;18.20;99.90;;;;;;5073077;28;20091;-93
2023/06/09 06:31:29;;;;;;;8.55;4.30;;;14.80;99.90;;;;;;5072505;28;20382;-87
2023/06/09 06:34:00;;;;;;;9.93;4.22;;;17.90;99.90;;;;;;5073324;28;20036;-92
2023/06/09 06:36:28;;;;;;;11.95;4.82;;;15.90;1.00;;;;;;5074136;28;20044;-91
2023/06/09 06:38:54;;;;;;;9.52;4.30;;;16.20;28.60;;;;;;5073711;28;20047;-88
2023/06/09 06:41:20;;;;;;;12.07;4.25;;;17.60;99.90;;;;;;5073367;28;20389;-88
2023/06/09 06:43:49;;;;;;;8.23;4.07;;;19.10;92.10;;;;;;5057070;28;20393;-93
2023/06/09 06:46:17;;;;;;;8.25;3.67;;;17.30;1.00;;;;;;5055978;28;20123;-90
2023/06/09 06:48:45;;;;;;;7.95;3.95;;;16.40;1.00;;;;;;5056694;28;20048;-93
2023/06/09 06:51:11;;;;;;;7.65;3.45;;;15.20;1.00;;;;;;5056689;28;20044;-91
2023/06/09 06:53:37;;;;;;;8.45;4.15;;;16.70;99.90;;;;;;5056203;28;20064;-89
2023/06/09 06:56:03;;;;;;;8.32;3.85;;;16.70;99.90;;;;;;5056175;28;20090;-91
2023/06/09 06:58:29;;;;;;;8.32;4.40;;;16.70;99.90;;;;;;5056385;28;20048;-88
2023/06/09 07:00:55;;;;;;;9.05;4.28;;;17.30;99.90;;;;;;5056960;28;20051;-89
2023/06/09 07:03:24;;;;;;;11.63;4.40;;;14.90;99.90;;;;;;5075415;28;20045;-87
2023/06/09 07:05:50;;;;;;;6.90;3.65;;;17.50;99.90;;;;;;5054962;28;20511;-92
2023/06/09 07:08:16;;;;;;;7.65;3.60;;;17.10;99.90;;;;;;5056855;28;20135;-91
2023/06/09 07:10:42;;;;;;;14.52;4.32;;;17.20;99.90;;;;;;5056589;28;20152;-86
2023/06/09 07:13:07;;;;;;;9.68;3.97;;;18.90;99.90;;;;;;5074036;28;20093;-89
2023/06/09 07:15:36;;;;;;;10.15;3.90;;;17.40;99.90;;;;;;5075080;28;20063;-92
2023/06/09 07:18:03;;;;;;;9.63;3.95;;;18.00;99.90;;;;;;5060274;28;20048;-88
2023/06/09 07:20:29;;;;;;;7.38;3.80;;;17.70;99.90;;;;;;5073416;28;20052;-92
2023/06/09 07:22:54;;;;;;;8.40;3.92;;;18.40;99.90;;;;;;5056794;28;20036;-90
2023/06/09 07:25:20;;;;;;;8.27;3.75;;;17.80;99.90;;;;;;5073101;28;20052;-91
2023/06/09 07:27:46;;;;;;;6.78;3.95;;;19.30;99.90;;;;;;5072766;28;20123;-89
2023/06/09 07:30:12;;;;;;;6.63;3.58;;;18.20;99.90;;;;;;5072392;28;20052;-92
2023/06/09 07:32:39;;;;;;;7.13;2.97;;;18.40;99.90;;;;;;5056330;28;20083;-86
2023/06/09 07:35:05;;;;;;;5.45;2.90;;;18.50;99.90;;;;;;5055814;28;20136;-90
2023/06/09 07:37:36;;;;;;;5.82;3.60;;;18.60;99.90;;;;;;5072826;28;20045;-89
2023/06/09 07:40:04;;;;;;;4.78;2.78;;;16.30;99.90;;;;;;5055211;28;20090;-91
2023/06/09 07:42:30;;;;;;;8.30;3.70;;;18.70;99.90;;;;;;5055674;28;20078;-90
2023/06/09 07:44:55;;;;;;;6.15;2.88;;;18.80;99.90;;;;;;5055596;28;20041;-89
2023/06/09 07:47:21;;;;;;;8.35;3.20;;;19.10;99.90;;;;;;5058633;28;20049;-90
2023/06/09 07:49:46;;;;;;;8.65;3.10;;;19.50;99.90;;;;;;5059785;28;20041;-92
2023/06/09 07:52:15;;;;;;;6.45;3.45;;;21.60;99.90;;;;;;5059509;28;20044;-93
2023/06/09 07:54:41;;;;;;;7.35;2.80;;;19.40;99.90;;;;;;5059234;28;20115;-92
2023/06/09 07:57:07;;;;;;;7.82;2.78;;;22.10;99.90;;;;;;5075788;28;20068;-93
2023/06/09 07:59:33;;;;;;;6.20;3.58;;;18.00;99.90;;;;;;5059351;28;20439;-92
2023/06/09 08:01:59;;;;;;;8.80;2.72;;;20.10;99.90;;;;;;5059758;28;20056;-90
2023/06/09 08:04:26;;;;;;;5.90;2.70;;;20.00;99.90;;;;;;5076464;28;20059;-92
2023/06/09 08:07:02;;;;;;;6.07;3.15;;;20.30;99.90;;;;;;5059422;28;20045;-91
2023/06/09 08:09:27;;;;;;;6.88;3.03;;;19.50;99.90;;;;;;5060034;28;20055;-92
2023/06/09 08:11:53;;;;;;;8.90;2.88;;;22.20;99.90;;;;;;5058934;28;20037;-89
2023/06/09 08:14:19;;;;;;;4.18;2.30;;;20.40;99.90;;;;;;5059849;28;20041;-93
2023/06/09 08:16:46;;;;;;;5.80;2.50;;;20.60;99.90;;;;;;5076347;28;20044;-86
2023/06/09 08:19:12;;;;;;;4.15;2.30;;;20.50;97.40;;;;;;5076065;28;20070;-86
2023/06/09 08:21:43;;;;;;;9.35;3.10;;;20.80;99.60;;;;;;5074923;28;20566;-90
2023/06/09 08:24:12;;;;;;;5.93;3.15;;;20.80;98.80;;;;;;5075195;28;20056;-93
2023/06/09 08:26:39;;;;;;;3.40;2.30;;;;;;;;;;5058968;28;20040;-88
2023/06/09 08:29:06;;;;;;;8.15;2.53;;;;;;;;;;5075217;28;20071;-85
2023/06/09 08:31:33;;;;;;;3.67;2.15;;;;;;;;;;5059298;28;20051;-91
2023/06/09 08:33:59;;;;;;;5.93;2.10;;;;;;;;;;5075361;28;20048;-91
2023/06/09 08:36:39;;;;;;;4.85;2.00;;;;;;;;;;5058803;28;20082;-93
2023/06/09 08:39:05;;;;;;;4.47;2.13;;;;;;;;;;5059154;28;20044;-92
2023/06/09 08:41:38;;;;;;;6.70;2.40;;;;;;;;;;5058766;28;20062;-95
2023/06/09 08:44:07;;;;;;;4.63;1.98;;;;;;;;;;5058185;28;20431;-90
2023/06/09 08:46:36;;;;;;;3.10;1.95;;;;;;;;;;5058162;28;20461;-92
2023/06/09 08:49:03;;;;;;;4.10;1.55;;;;;;;;;;5058368;28;20190;-92
2023/06/09 08:51:29;;;;;;;4.68;2.13;;;;;;;;;;5075229;28;20443;-92
2023/06/09 08:53:55;;;;;;;4.05;2.00;;;;;;;;;;5074923;28;20044;-90
2023/06/09 08:56:22;;;;;;;4.28;1.98;;;;;;;;;;5074820;28;20465;-91
2023/06/09 08:58:51;;;;;;;3.17;1.77;;;;;;;;;;5074650;28;20123;-91
2023/06/09 09:01:18;;;;;;;4.50;2.00;;;;;;;;;;5058304;28;20398;-89
2023/06/09 09:03:44;;;;;;;4.45;1.90;;;;;;;;;;5075496;28;20055;-92
2023/06/09 09:06:11;;;;;;;3.63;2.00;;;;;;;;;;5074328;28;20048;-86
2023/06/09 09:08:37;;;;;;;8.75;1.98;;;;;;;;;;5058300;28;20078;-90
2023/06/09 09:11:04;;;;;;;3.95;2.17;;;;;;;;;;5074710;28;20128;-91
2023/06/09 09:13:31;;;;;;;4.53;1.80;;;;;;;;;;5057892;28;20443;-89
2023/06/09 09:15:58;;;;;;;5.38;2.25;;;;;;;;;;5058771;28;20044;-88
2023/06/09 09:18:29;;;;;;;3.90;2.03;;;;;;;;;;5074238;28;20051;-92
2023/06/09 09:20:56;;;;;;;4.25;2.20;;;;;;;;;;5057275;28;20044;-88
2023/06/09 09:23:29;;;;;;;4.55;2.28;;;;;;;;;;5075489;28;20123;-94
2023/06/09 09:25:55;;;;;;;6.28;1.90;;;23.70;99.90;;;;;;5074451;28;20489;-89
2023/06/09 09:28:20;;;;;;;3.38;2.10;;;23.40;99.90;;;;;;5074161;28;20058;-87
2023/06/09 09:30:48;;;;;;;3.00;1.95;;;23.70;99.90;;;;;;5074353;28;20080;-90
2023/06/09 09:33:22;;;;;;;5.43;2.15;;;23.60;94.90;;;;;;5057879;28;20075;-92
2023/06/09 09:35:55;;;;;;;5.18;2.05;;;23.90;83.70;;;;;;5057387;28;20110;-96
2023/06/09 09:38:29;;;;;;;4.03;2.28;;;23.80;99.90;;;;;;5073977;28;20053;-88
2023/06/09 09:40:57;;;;;;;5.15;2.13;;;25.30;99.90;;;;;;5074553;28;20048;-92
2023/06/09 09:43:30;;;;;;;4.00;1.90;;;24.00;71.20;;;;;;5074584;28;20054;-93
2023/06/09 09:46:01;;;;;;;6.97;1.83;;;24.00;79.10;;;;;;5057164;28;20048;-93
2023/06/09 09:48:27;;;;;;;6.55;2.03;;;24.50;85.00;;;;;;5057136;28;20048;-93
2023/06/09 09:50:58;;;;;;;7.10;1.77;;;24.60;76.30;;;;;;5056947;28;20070;-94
2023/06/09 09:53:27;;;;;;;4.72;2.42;;;24.50;96.10;;;;;;5057676;28;20057;-92
2023/06/09 09:55:55;;;;;;;4.00;2.05;;;24.60;84.00;;;;;;5073250;28;20094;-91
2023/06/09 09:58:34;;;;;;;2.53;1.67;;;24.70;73.20;;;;;;5056803;28;20049;-90
2023/06/09 10:01:04;;;;;;;5.38;1.85;;;24.60;54.00;;;;;;5073930;28;20050;-92
2023/06/09 10:03:33;;;;;;;4.32;1.80;;;24.70;65.60;;;;;;5056820;28;20135;-93
2023/06/09 10:06:02;;;;;;;4.85;1.92;;;25.20;98.60;;;;;;5056734;28;20408;-87
2023/06/09 10:08:30;;;;;;;4.97;2.13;;;24.80;58.30;;;;;;5074322;28;20564;-88
2023/06/09 10:10:57;;;;;;;3.85;1.73;;;24.80;50.00;;;;;;5056667;28;20053;-89
2023/06/09 10:13:26;;;;;;;3.35;2.05;;;24.90;52.00;;;;;;5074550;28;20075;-88
2023/06/09 10:15:53;;;;;;;3.75;2.22;;;24.90;55.40;;;;;;5057976;28;20141;-90
2023/06/09 10:18:20;;;;;;;3.17;1.83;;;25.00;50.10;;;;;;5074385;28;20173;-93
2023/06/09 10:20:50;;;;;;;3.25;2.08;;;25.10;59.20;;;;;;5057103;28;20045;-88
2023/06/09 10:23:16;;;;;;;5.50;2.05;;;26.30;49.10;;;;;;5057761;28;20055;-87
2023/06/09 10:25:42;;;;;;;3.47;2.20;;;27.00;71.80;;;;;;5058014;28;20040;-89
2023/06/09 10:28:10;;;;;;;8.23;1.75;;;25.00;73.20;;;;;;5057495;28;20057;-89
2023/06/09 10:30:37;;;;;;;5.57;2.35;;;26.90;60.20;;;;;;5073560;28;20090;-91
2023/06/09 10:33:13;;;;;;;3.05;1.58;;;25.20;80.30;;;;;;5073728;28;20052;-89
2023/06/09 10:35:41;;;;;;;2.33;1.65;;;25.70;53.20;;;;;;5074666;28;20058;-91
2023/06/09 10:38:27;;;;;;;3.03;1.92;;;23.40;71.80;;;;;;5057116;28;20048;-88
2023/06/09 10:41:12;;;;;;;4.13;1.80;;;26.10;57.30;;;;;;5073058;28;20059;-88
2023/06/09 10:43:41;;;;;;;3.63;2.28;;;25.50;41.80;;;;;;5057120;28;20485;-92
2023/06/09 10:46:07;;;;;;;3.72;1.95;;;25.50;44.40;;;;;;5072861;28;20084;-88
2023/06/09 10:48:48;;;;;;;2.78;1.60;;;25.30;59.80;;;;;;5072926;28;20073;-89
2023/06/09 10:51:26;;;;;;;4.47;2.20;;;25.70;40.70;;;;;;5055625;28;20040;-88
2023/06/09 10:54:20;;;;;;;6.13;2.60;;;25.50;99.90;;;;;;5056127;28;20511;-88
2023/06/09 10:56:52;;;;;;;3.03;1.70;;;26.50;84.50;;;;;;5055535;28;20497;-94
2023/06/09 10:59:24;;;;;;;3.92;1.98;;;25.50;54.20;;;;;;5072268;28;20048;-89
2023/06/09 11:02:04;;;;;;;2.65;2.17;;;28.10;57.90;;;;;;5073452;28;20047;-92
2023/06/09 11:04:52;;;;;;;3.67;2.05;;;24.10;39.80;;;;;;5072533;28;20105;-88
2023/06/09 11:07:29;;;;;;;3.65;2.00;;;26.00;56.40;;;;;;5072406;28;20056;-86
2023/06/09 11:09:58;;;;;;;4.05;2.08;;;23.30;47.80;;;;;;5055921;28;20044;-89
2023/06/09 11:12:39;;;;;;;3.08;1.90;;;25.70;54.60;;;;;;5055837;28;20052;-88
2023/06/09 11:15:06;;;;;;;3.08;1.95;;;25.80;69.50;;;;;;5073229;28;20044;-89
2023/06/09 11:17:37;;;;;;;3.75;2.10;;;25.80;39.00;;;;;;5072788;28;20040;-91
2023/06/09 11:20:09;;;;;;;5.65;2.60;;;27.00;64.20;;;;;;5072415;28;20052;-90
2023/06/09 11:25:15;;;;;;;5.38;2.38;;;26.00;41.10;;;;;;5076535;28;20060;-93
2023/06/09 11:27:42;;;;;;;6.65;2.13;;;26.10;47.90;;;;;;5059730;28;20135;-89
2023/06/09 11:30:18;;;;;;;5.53;2.30;;;26.30;39.00;;;;;;5075468;28;20044;-92
2023/06/09 11:32:48;;;;;;;4.30;2.15;;;26.20;40.80;;;;;;5059303;28;20131;-86
2023/06/09 11:37:59;;;;;;;3.03;2.00;;;26.30;36.30;;;;;;5075823;28;20101;-91
2023/06/09 11:40:25;;;;;;;;;;;26.20;37.10;;;;;;5077021;28;20185;-91
2023/06/09 11:42:51;;;;;;;4.07;2.10;;;28.20;64.70;;;;;;5060611;28;19935;-90
2023/06/09 11:45:27;;;;;;;3.60;2.45;;;26.50;72.50;;;;;;5060036;28;20056;-91
2023/06/09 11:47:59;;;;;;;3.55;2.08;;;26.80;40.40;;;;;;5060179;28;20055;-91
2023/06/09 11:50:35;;;;;;;3.65;2.95;;;26.70;54.30;;;;;;5076842;28;20488;-90
2023/06/09 11:53:05;;;;;;;3.47;2.22;;;26.70;56.30;;;;;;5076388;28;20421;-88
2023/06/09 11:55:31;;;;;;;4.10;1.80;;;26.60;40.90;;;;;;5076183;28;20393;-88
2023/06/09 11:57:57;;;;;;;5.43;2.40;;;28.00;56.10;;;;;;5077039;28;20046;-88
2023/06/09 12:00:30;;;;;;;5.72;2.35;;;26.60;39.60;;;;;;5075618;28;20558;-90
2023/06/09 12:02:57;;;;;;;4.20;2.33;;;26.60;37.90;;;;;;5075777;28;20524;-90
2023/06/09 12:05:23;;;;;;;4.20;2.33;;;26.80;57.40;;;;;;5075578;28;20392;-88
2023/06/09 12:07:51;;;;;;;3.17;2.42;;;26.70;52.70;;;;;;5075482;28;20097;-91
2023/06/09 12:10:23;;;;;;;3.50;2.50;;;26.80;44.90;;;;;;5075382;28;20044;-90
2023/06/09 12:12:56;;;;;;;3.55;2.28;;;26.80;54.20;;;;;;5059466;28;20041;-90
2023/06/09 12:15:22;;;;;;;;;;;26.90;36.80;;;;;;5059278;28;20115;-89
2023/06/09 12:17:50;;;;;;;3.67;2.28;;;27.50;74.50;;;;;;5075589;28;19975;-87
2023/06/09 12:20:22;;;;;;;3.53;2.25;;;26.90;41.30;;;;;;5059460;28;20049;-88
2023/06/09 12:22:49;;;;;;;3.78;2.22;;;26.90;38.60;;;;;;5075725;28;20097;-87
2023/06/09 12:25:26;;;;;;;5.78;2.67;;;26.90;57.50;;;;;;5076343;28;20135;-88
2023/06/09 12:27:53;;;;;;;4.80;2.40;;;27.30;91.30;;;;;;5059012;28;20056;-89
2023/06/09 12:30:39;;;;;;;4.75;2.45;;;27.40;47.60;;;;;;5058654;28;20241;-90
2023/06/09 12:33:12;;;;;;;4.35;2.70;;;26.30;36.70;;;;;;5075015;28;20048;-89
2023/06/09 12:35:45;;;;;;;4.53;2.17;;;28.80;37.50;;;;;;5058655;28;20044;-87
2023/06/09 12:38:19;;;;;;;4.75;2.33;;;27.10;35.70;;;;;;5058239;28;20040;-91
2023/06/09 12:40:48;;;;;;;3.75;2.22;;;27.20;40.90;;;;;;5074923;28;20044;-92
2023/06/09 12:43:15;;;;;;;3.83;2.58;;;27.70;1.00;;;;;;5074686;28;20131;-91
2023/06/09 12:45:42;;;;;;;5.63;2.75;;;27.20;91.20;;;;;;5075720;28;20512;-91
2023/06/09 12:48:09;;;;;;;5.60;2.80;;;27.50;53.00;;;;;;5074575;28;20058;-90
2023/06/09 12:50:35;;;;;;;5.07;2.97;;;25.70;99.40;;;;;;5058623;28;20389;-93
2023/06/09 12:53:01;;;;;;;3.17;2.33;;;27.90;99.90;;;;;;5058286;28;20045;-90
2023/06/09 12:55:26;;;;;;;3.85;2.80;;;27.40;99.90;;;;;;5074803;28;20044;-86
2023/06/09 12:57:52;;;;;;;6.85;2.92;;;27.40;99.90;;;;;;5074544;28;20052;-88
2023/06/09 13:00:20;;;;;;;4.65;2.55;;;27.70;99.90;;;;;;5074714;28;20087;-91
2023/06/09 13:02:46;;;;;;;4.65;2.30;;;27.60;99.90;;;;;;5074779;28;20087;-87
2023/06/09 13:05:12;;;;;;;10.30;2.60;;;27.80;86.20;;;;;;5057765;28;20068;-93
2023/06/09 13:07:38;;;;;;;2.85;2.08;;;27.60;99.90;;;;;;5075925;28;20045;-95